createdAt,value
2018-02-10T00:00:06.130Z,71.31
2018-02-10T00:02:33.615Z,71.36
2018-02-10T00:05:01.109Z,71.63
2018-02-10T00:07:28.571Z,70.95
2018-02-10T00:09:56.050Z,70.48
2018-02-10T00:12:23.648Z,69.70
2018-02-10T00:14:51.242Z,70.11
2018-02-10T00:17:18.729Z,69.61
2018-02-10T00:19:46.204Z,69.66
2018-02-10T00:22:25.314Z,70.45
2018-02-10T00:24:52.775Z,70.92
2018-02-10T00:27:20.248Z,70.36
2018-02-10T00:29:47.735Z,69.75
2018-02-10T00:32:15.198Z,69.72
2018-02-10T00:34:42.675Z,69.27
2018-02-10T00:37:10.130Z,70.11
2018-02-10T00:42:11.431Z,69.15
2018-02-10T00:44:38.892Z,69.49
2018-02-10T00:47:06.365Z,69.70
2018-02-10T00:49:33.847Z,69.56
2018-02-10T00:52:01.314Z,69.75
2018-02-10T00:54:28.778Z,70.24
2018-02-10T00:56:56.248Z,69.33
2018-02-10T00:59:23.726Z,69.46
2018-02-10T01:01:51.243Z,69.01
2018-02-10T01:04:18.701Z,68.59
2018-02-10T01:06:46.146Z,68.74
2018-02-10T01:09:13.614Z,68.65
2018-02-10T01:11:41.074Z,69.07
2018-02-10T01:14:08.520Z,69.28
2018-02-10T01:16:36.112Z,69.67
2018-02-10T01:19:03.606Z,68.96
2018-02-10T01:21:31.103Z,69.13
2018-02-10T01:23:58.589Z,68.42
2018-02-10T01:26:26.032Z,68.85
2018-02-10T01:28:53.502Z,68.67
2018-02-10T01:31:20.962Z,68.75
2018-02-10T01:33:48.410Z,69.02
2018-02-10T01:36:15.892Z,68.90
2018-02-10T01:38:43.356Z,68.84
2018-02-10T01:41:10.806Z,68.86
2018-02-10T01:43:38.288Z,68.69
2018-02-10T01:46:05.751Z,68.90
2018-02-10T01:48:33.210Z,69.01
2018-02-10T01:51:00.679Z,69.30
2018-02-10T01:53:28.136Z,69.07
2018-02-10T01:55:55.612Z,68.87
2018-02-10T01:58:23.118Z,69.34
2018-02-10T02:00:50.574Z,68.85
2018-02-10T02:03:18.080Z,69.17
2018-02-10T02:05:45.546Z,69.39
2018-02-10T02:08:13.658Z,69.71
2018-02-10T02:10:41.141Z,69.70
2018-02-10T02:13:08.603Z,69.14
2018-02-10T02:15:36.057Z,69.61
2018-02-10T02:18:03.617Z,69.59
2018-02-10T02:20:31.246Z,69.79
2018-02-10T02:22:58.814Z,70.22
2018-02-10T02:25:26.279Z,69.95
2018-02-10T02:27:53.748Z,69.89
2018-02-10T02:30:21.236Z,69.93
2018-02-10T02:32:48.750Z,70.60
2018-02-10T02:35:16.208Z,70.61
2018-02-10T02:37:43.727Z,69.72
2018-02-10T02:40:11.208Z,70.09
2018-02-10T02:42:39.047Z,70.32
2018-02-10T02:45:06.526Z,70.58
2018-02-10T02:47:33.993Z,70.43
2018-02-10T02:50:01.534Z,70.68
2018-02-10T02:52:29.081Z,70.91
2018-02-10T02:54:56.536Z,71.25
2018-02-10T02:57:23.999Z,71.64
2018-02-10T02:59:51.450Z,71.27
2018-02-10T03:02:18.937Z,72.06
2018-02-10T03:04:46.417Z,71.95
2018-02-10T03:07:13.882Z,72.13
2018-02-10T03:09:41.471Z,71.77
2018-02-10T03:12:09.016Z,71.62
2018-02-10T03:14:36.554Z,72.05
2018-02-10T03:17:04.734Z,72.36
2018-02-10T03:19:32.226Z,72.63
2018-02-10T03:21:59.766Z,72.52
2018-02-10T03:24:27.254Z,72.62
2018-02-10T03:26:54.713Z,72.70
2018-02-10T03:29:22.429Z,72.54
2018-02-10T03:31:50.021Z,72.30
2018-02-10T03:34:18.132Z,72.05
2018-02-10T03:36:48.321Z,72.42
2018-02-10T03:39:15.800Z,72.38
2018-02-10T03:41:43.274Z,71.94
2018-02-10T03:44:10.751Z,71.92
2018-02-10T03:46:38.242Z,72.21
2018-02-10T03:49:05.727Z,72.43
2018-02-10T03:51:33.186Z,72.27
2018-02-10T03:54:00.681Z,72.30
2018-02-10T03:56:28.137Z,72.43
2018-02-10T03:58:55.600Z,71.83
2018-02-10T04:01:23.058Z,71.25
2018-02-10T04:03:50.514Z,71.46
2018-02-10T04:06:18.229Z,71.71
2018-02-10T04:08:45.700Z,71.55
2018-02-10T04:11:13.152Z,71.74
2018-02-10T04:13:40.628Z,71.57
2018-02-10T04:16:08.097Z,71.55
2018-02-10T04:18:35.729Z,71.20
2018-02-10T04:21:03.430Z,71.25
2018-02-10T04:23:33.042Z,71.01
2018-02-10T04:26:00.523Z,71.25
2018-02-10T04:28:28.155Z,71.99
2018-02-10T04:30:55.662Z,71.39
2018-02-10T04:33:23.112Z,71.81
2018-02-10T04:35:50.681Z,71.82
2018-02-10T04:38:18.267Z,72.10
2018-02-10T04:40:45.848Z,72.05
2018-02-10T04:43:13.371Z,72.34
2018-02-10T04:45:41.109Z,72.27
2018-02-10T04:48:08.709Z,72.45
2018-02-10T04:50:36.355Z,72.40
2018-02-10T04:53:04.797Z,73.03
2018-02-10T04:55:32.374Z,73.04
2018-02-10T04:58:00.107Z,72.94
2018-02-10T05:00:27.749Z,73.08
2018-02-10T05:02:55.227Z,73.45
2018-02-10T05:05:22.845Z,73.34
2018-02-10T05:07:50.463Z,73.41
2018-02-10T05:10:18.210Z,73.58
2018-02-10T05:12:45.750Z,73.28
2018-02-10T05:15:13.240Z,73.26
2018-02-10T05:17:40.708Z,73.25
2018-02-10T05:20:08.304Z,73.15
2018-02-10T05:22:36.204Z,73.47
2018-02-10T05:25:03.741Z,72.85
2018-02-10T05:27:31.445Z,73.30
2018-02-10T05:29:58.907Z,72.91
2018-02-10T05:32:26.476Z,73.25
2018-02-10T05:34:53.936Z,73.47
2018-02-10T05:37:21.534Z,73.71
2018-02-10T05:39:48.989Z,73.92
2018-02-10T05:42:16.592Z,73.53
2018-02-10T05:44:44.082Z,73.07
2018-02-10T05:47:11.535Z,73.27
2018-02-10T05:49:40.293Z,73.01
2018-02-10T05:52:07.764Z,73.47
2018-02-10T05:54:35.342Z,73.43
2018-02-10T05:57:04.466Z,73.71
2018-02-10T05:59:32.040Z,74.06
2018-02-10T06:01:59.590Z,74.28
2018-02-10T06:04:27.071Z,74.26
2018-02-10T06:06:54.531Z,74.89
2018-02-10T06:09:22.086Z,75.07
2018-02-10T06:11:49.651Z,75.13
2018-02-10T06:14:17.094Z,75.26
2018-02-10T06:16:44.554Z,75.17
2018-02-10T06:19:11.998Z,75.32
2018-02-10T06:21:39.442Z,74.56
2018-02-10T06:24:06.976Z,75.08
2018-02-10T06:26:34.521Z,74.88
2018-02-10T06:29:01.992Z,74.97
2018-02-10T06:31:29.479Z,75.43
2018-02-10T06:33:56.935Z,75.33
2018-02-10T06:36:24.446Z,75.59
2018-02-10T06:38:51.937Z,75.67
2018-02-10T06:41:19.382Z,75.58
2018-02-10T06:43:46.849Z,75.80
2018-02-10T06:46:14.307Z,75.41
2018-02-10T06:48:41.828Z,75.59
2018-02-10T06:51:09.318Z,75.25
2018-02-10T06:53:36.768Z,75.56
2018-02-10T06:56:04.239Z,75.76
2018-02-10T06:58:31.706Z,75.83
2018-02-10T07:00:59.146Z,75.90
2018-02-10T07:03:26.633Z,76.02
2018-02-10T07:05:54.094Z,76.28
2018-02-10T07:08:21.546Z,76.24
2018-02-10T07:10:49.019Z,75.96
2018-02-10T07:13:16.467Z,76.15
2018-02-10T07:15:43.951Z,76.22
2018-02-10T07:18:11.411Z,76.13
2018-02-10T07:20:38.853Z,76.24
2018-02-10T07:23:06.327Z,75.87
2018-02-10T07:25:33.787Z,75.76
2018-02-10T07:28:01.274Z,75.05
2018-02-10T07:30:28.764Z,75.73
2018-02-10T07:32:56.210Z,75.56
2018-02-10T07:35:23.677Z,75.91
2018-02-10T07:37:51.217Z,75.28
2018-02-10T07:40:18.768Z,75.19
2018-02-10T07:42:46.272Z,75.26
2018-02-10T07:45:13.817Z,75.17
2018-02-10T07:47:41.292Z,75.08
2018-02-10T07:50:08.758Z,75.70
2018-02-10T07:52:36.395Z,75.87
2018-02-10T07:55:03.858Z,75.45
2018-02-10T07:57:31.334Z,75.21
2018-02-10T07:59:58.787Z,74.79
2018-02-10T08:02:26.269Z,75.37
2018-02-10T08:04:53.738Z,75.86
2018-02-10T08:07:21.207Z,75.73
2018-02-10T08:09:48.708Z,75.43
2018-02-10T08:12:16.167Z,75.25
2018-02-10T08:14:43.659Z,75.50
2018-02-10T08:17:11.124Z,75.23
2018-02-10T08:19:38.577Z,75.37
2018-02-10T08:22:06.065Z,75.58
2018-02-10T08:24:33.535Z,79.38
2018-02-10T08:27:00.986Z,77.15
2018-02-10T08:29:28.458Z,72.85
2018-02-10T08:31:55.963Z,73.12
2018-02-10T08:34:23.448Z,73.95
2018-02-10T08:36:50.909Z,74.69
2018-02-10T08:39:18.372Z,75.82
2018-02-10T08:41:45.894Z,76.13
2018-02-10T08:44:13.362Z,76.57
2018-02-10T08:46:40.858Z,76.21
2018-02-10T08:49:08.349Z,76.01
2018-02-10T08:51:35.817Z,76.48
2018-02-10T08:54:03.308Z,76.21
2018-02-10T08:56:30.772Z,76.62
2018-02-10T08:58:58.254Z,76.87
2018-02-10T09:01:25.723Z,76.54
2018-02-10T09:03:53.187Z,76.17
2018-02-10T09:06:20.664Z,76.74
2018-02-10T09:08:48.120Z,77.20
2018-02-10T09:11:15.575Z,77.24
2018-02-10T09:13:43.055Z,77.32
2018-02-10T09:16:10.523Z,77.21
2018-02-10T09:18:38.149Z,77.48
2018-02-10T09:21:05.638Z,77.03
2018-02-10T09:23:33.119Z,76.50
2018-02-10T09:26:00.627Z,75.87
2018-02-10T09:28:28.136Z,75.17
2018-02-10T09:30:55.574Z,74.81
2018-02-10T09:33:23.044Z,74.25
2018-02-10T09:35:50.511Z,73.85
2018-02-10T09:38:17.990Z,73.20
2018-02-10T09:40:45.565Z,72.54
2018-02-10T09:43:13.028Z,72.49
2018-02-10T09:45:40.516Z,72.61
2018-02-10T09:48:07.999Z,72.45
2018-02-10T09:50:35.485Z,72.69
2018-02-10T09:53:02.953Z,72.84
2018-02-10T09:55:30.484Z,72.65
2018-02-10T09:57:57.971Z,72.17
2018-02-10T10:00:25.542Z,72.36
2018-02-10T10:02:53.047Z,72.21
2018-02-10T10:05:20.522Z,71.80
2018-02-10T10:07:48.008Z,71.90
2018-02-10T10:10:15.486Z,72.04
2018-02-10T10:12:42.973Z,72.46
2018-02-10T10:15:10.473Z,72.96
2018-02-10T10:17:37.967Z,72.52
2018-02-10T10:20:05.469Z,72.07
2018-02-10T10:22:32.949Z,72.24
2018-02-10T10:25:00.429Z,72.00
2018-02-10T10:27:27.948Z,72.45
2018-02-10T10:29:55.425Z,72.15
2018-02-10T10:32:22.903Z,71.94
2018-02-10T10:34:50.382Z,72.15
2018-02-10T10:37:17.848Z,72.20
2018-02-10T10:39:45.322Z,71.96
2018-02-10T10:42:12.828Z,72.25
2018-02-10T10:44:40.309Z,71.77
2018-02-10T10:47:07.792Z,71.87
2018-02-10T10:49:35.266Z,71.07
2018-02-10T10:52:02.751Z,71.03
2018-02-10T10:54:30.229Z,71.16
2018-02-10T10:56:57.680Z,71.29
2018-02-10T10:59:25.220Z,71.05
2018-02-10T11:01:52.718Z,71.20
2018-02-10T11:04:20.274Z,71.58
2018-02-10T11:06:47.746Z,71.92
2018-02-10T11:09:15.339Z,71.57
2018-02-10T11:11:42.837Z,72.20
2018-02-10T11:14:10.307Z,72.31
2018-02-10T11:16:37.851Z,71.49
2018-02-10T11:19:05.326Z,71.41
2018-02-10T11:21:32.831Z,72.22
2018-02-10T11:24:00.305Z,72.29
2018-02-10T11:26:27.819Z,72.12
2018-02-10T11:28:55.310Z,72.11
2018-02-10T11:31:22.785Z,72.23
2018-02-10T11:33:50.265Z,72.23
2018-02-10T11:36:17.719Z,71.70
2018-02-10T11:38:45.224Z,71.94
2018-02-10T11:41:12.742Z,72.33
2018-02-10T11:43:40.210Z,72.35
2018-02-10T11:46:07.719Z,72.61
2018-02-10T11:48:35.206Z,72.84
2018-02-10T11:51:02.691Z,73.16
2018-02-10T11:53:30.151Z,72.44
2018-02-10T11:55:57.833Z,72.88
2018-02-10T11:58:25.343Z,73.19
2018-02-10T12:00:52.807Z,73.11
2018-02-10T12:03:20.319Z,73.49
2018-02-10T12:05:47.811Z,73.43
2018-02-10T12:08:15.258Z,73.66
2018-02-10T12:10:42.772Z,73.71
2018-02-10T12:13:10.247Z,73.51
2018-02-10T12:15:37.788Z,73.67
2018-02-10T12:18:05.319Z,73.53
2018-02-10T12:20:32.829Z,73.64
2018-02-10T12:23:00.551Z,73.70
2018-02-10T12:25:28.058Z,74.29
2018-02-10T12:27:55.537Z,74.10
2018-02-10T12:30:23.059Z,73.82
2018-02-10T12:32:51.029Z,72.97
2018-02-10T12:37:52.879Z,73.60
2018-02-10T12:40:21.031Z,73.71
2018-02-10T12:42:55.035Z,74.24
2018-02-10T12:45:23.217Z,74.73
2018-02-10T12:47:56.373Z,74.19
2018-02-10T12:50:24.464Z,73.90
2018-02-10T12:52:55.900Z,73.62
2018-02-10T12:55:25.222Z,74.46
2018-02-10T12:57:53.981Z,73.98
2018-02-10T13:00:23.165Z,74.45
2018-02-10T13:03:04.841Z,74.29
2018-02-10T13:05:33.232Z,74.30
2018-02-10T13:08:01.140Z,73.88
2018-02-10T13:10:29.758Z,73.76
2018-02-10T13:12:58.960Z,73.83
2018-02-10T13:15:28.927Z,73.58
2018-02-10T13:17:56.831Z,73.51
2018-02-10T13:20:27.158Z,73.33
2018-02-10T13:22:57.890Z,73.21
2018-02-10T13:25:25.795Z,73.57
2018-02-10T13:27:53.546Z,73.72
2018-02-10T13:30:21.154Z,73.83
2018-02-10T13:32:48.805Z,73.84
2018-02-10T13:35:16.274Z,73.49
2018-02-10T13:37:43.745Z,73.24
2018-02-10T13:40:11.232Z,73.70
2018-02-10T13:42:41.378Z,73.97
2018-02-10T13:45:08.909Z,74.25
2018-02-10T13:47:36.382Z,74.40
2018-02-10T13:50:03.882Z,74.47
2018-02-10T13:52:31.387Z,74.30
2018-02-10T13:54:58.847Z,74.69
2018-02-10T13:57:27.195Z,74.77
2018-02-10T13:59:54.696Z,75.24
2018-02-10T14:02:22.161Z,75.36
2018-02-10T14:04:49.635Z,75.33
2018-02-10T14:07:17.104Z,76.21
2018-02-10T14:09:44.590Z,76.47
2018-02-10T14:12:12.148Z,76.55
2018-02-10T14:14:39.631Z,77.18
2018-02-10T14:17:07.774Z,77.23
2018-02-10T14:19:35.261Z,77.10
2018-02-10T14:22:02.744Z,77.36
2018-02-10T14:24:30.381Z,77.59
2018-02-10T14:26:57.868Z,77.25
2018-02-10T14:29:25.344Z,76.65
2018-02-10T14:31:52.822Z,77.00
2018-02-10T14:34:20.322Z,77.47
2018-02-10T14:36:47.795Z,77.59
2018-02-10T14:39:15.439Z,77.43
2018-02-10T14:41:42.967Z,77.39
2018-02-10T14:44:10.428Z,77.04
2018-02-10T14:46:37.954Z,76.96
2018-02-10T14:49:05.487Z,77.10
2018-02-10T14:51:32.989Z,77.31
2018-02-10T14:54:00.496Z,77.60
2018-02-10T14:56:27.956Z,77.44
2018-02-10T14:58:55.466Z,77.58
2018-02-10T15:01:22.954Z,77.21
2018-02-10T15:03:50.439Z,77.63
2018-02-10T15:06:17.997Z,77.62
2018-02-10T15:08:45.467Z,77.93
2018-02-10T15:11:12.946Z,77.84
2018-02-10T15:13:40.412Z,78.10
2018-02-10T15:18:42.480Z,78.15
2018-02-10T15:21:09.974Z,78.36
2018-02-10T15:23:37.444Z,78.11
2018-02-10T15:26:04.939Z,78.21
2018-02-10T15:28:32.419Z,78.12
2018-02-10T15:31:11.686Z,78.04
2018-02-10T15:33:50.899Z,78.26
2018-02-10T15:36:18.411Z,78.61
2018-02-10T15:38:45.905Z,78.60
2018-02-10T15:41:13.399Z,78.78
2018-02-10T15:43:40.912Z,78.51
2018-02-10T15:46:08.409Z,78.45
2018-02-10T15:48:35.929Z,78.94
2018-02-10T15:51:03.436Z,78.88
2018-02-10T15:53:30.908Z,79.41
2018-02-10T15:55:58.352Z,78.89
2018-02-10T15:58:25.885Z,79.22
2018-02-10T16:00:53.369Z,79.85
2018-02-10T16:03:20.840Z,80.23
2018-02-10T16:05:48.727Z,80.14
2018-02-10T16:08:16.586Z,80.33
2018-02-10T16:10:44.243Z,80.68
2018-02-10T16:13:11.734Z,80.83
2018-02-10T16:15:39.222Z,81.31
2018-02-10T16:18:06.704Z,81.28
2018-02-10T16:20:34.403Z,80.71
2018-02-10T16:23:01.912Z,80.64
2018-02-10T16:25:29.392Z,81.20
2018-02-10T16:27:56.889Z,80.62
2018-02-10T16:30:24.790Z,80.63
2018-02-10T16:32:52.279Z,80.85
2018-02-10T16:35:19.843Z,81.04
2018-02-10T16:37:47.351Z,81.20
2018-02-10T16:40:14.858Z,81.05
2018-02-10T16:42:42.352Z,80.96
2018-02-10T16:45:09.951Z,80.77
2018-02-10T16:47:37.433Z,80.71
2018-02-10T16:50:04.937Z,80.71
2018-02-10T16:52:32.420Z,80.23
2018-02-10T16:54:59.921Z,80.11
2018-02-10T16:57:27.437Z,80.57
2018-02-10T16:59:54.909Z,80.24
2018-02-10T17:02:22.393Z,79.64
2018-02-10T17:04:50.069Z,79.50
2018-02-10T17:07:17.526Z,79.39
2018-02-10T17:09:45.087Z,79.63
2018-02-10T17:12:12.557Z,79.58
2018-02-10T17:14:40.063Z,79.52
2018-02-10T17:17:07.536Z,80.11
2018-02-10T17:19:35.008Z,80.23
2018-02-10T17:22:02.507Z,79.69
2018-02-10T17:24:30.022Z,79.71
2018-02-10T17:26:57.513Z,80.02
2018-02-10T17:29:25.016Z,80.31
2018-02-10T17:31:52.537Z,79.99
2018-02-10T17:34:20.050Z,80.07
2018-02-10T17:36:47.533Z,79.89
2018-02-10T17:39:15.080Z,79.94
2018-02-10T17:41:42.662Z,80.01
2018-02-10T17:44:10.130Z,80.41
2018-02-10T17:46:37.644Z,80.36
2018-02-10T17:49:05.172Z,80.35
2018-02-10T17:51:32.643Z,80.60
2018-02-10T17:54:00.145Z,80.75
2018-02-10T17:56:27.679Z,80.62
2018-02-10T17:58:55.482Z,81.03
2018-02-10T18:01:22.973Z,80.95
2018-02-10T18:03:50.491Z,81.02
2018-02-10T18:06:17.970Z,81.13
2018-02-10T18:08:45.436Z,81.46
2018-02-10T18:11:12.991Z,81.33
2018-02-10T18:13:40.457Z,80.81
2018-02-10T18:16:08.011Z,80.70
2018-02-10T18:18:35.489Z,80.55
2018-02-10T18:21:03.026Z,80.80
2018-02-10T18:23:30.545Z,81.03
2018-02-10T18:25:58.062Z,81.02
2018-02-10T18:28:25.516Z,81.28
2018-02-10T18:30:52.996Z,80.32
2018-02-10T18:33:20.691Z,80.42
2018-02-10T18:35:48.171Z,80.50
2018-02-10T18:38:15.649Z,80.70
2018-02-10T18:40:43.530Z,80.94
2018-02-10T18:43:11.014Z,80.98
2018-02-10T18:45:38.530Z,80.71
2018-02-10T18:48:05.977Z,80.13
2018-02-10T18:50:33.471Z,80.53
2018-02-10T18:53:00.981Z,80.26
2018-02-10T18:55:28.447Z,80.34
2018-02-10T18:57:55.946Z,80.40
2018-02-10T19:00:23.554Z,80.70
2018-02-10T19:02:51.171Z,80.69
2018-02-10T19:05:18.647Z,81.06
2018-02-10T19:07:46.239Z,80.99
2018-02-10T19:10:13.700Z,80.78
2018-02-10T19:12:41.269Z,80.52
2018-02-10T19:15:08.826Z,80.84
2018-02-10T19:17:36.370Z,81.00
2018-02-10T19:20:03.892Z,80.33
2018-02-10T19:22:31.377Z,80.00
2018-02-10T19:24:58.841Z,80.02
2018-02-10T19:27:26.361Z,79.86
2018-02-10T19:29:53.848Z,80.05
2018-02-10T19:32:21.325Z,80.11
2018-02-10T19:34:48.808Z,80.04
2018-02-10T19:37:16.282Z,80.10
2018-02-10T19:39:43.779Z,79.55
2018-02-10T19:42:11.241Z,79.78
2018-02-10T19:44:38.725Z,79.89
2018-02-10T19:47:06.204Z,79.93
2018-02-10T19:49:34.844Z,79.89
2018-02-10T19:52:02.387Z,80.45
2018-02-10T19:54:29.886Z,79.99
2018-02-10T19:56:57.359Z,79.94
2018-02-10T19:59:24.829Z,79.38
2018-02-10T20:01:52.292Z,79.60
2018-02-10T20:04:19.793Z,79.44
2018-02-10T20:06:47.370Z,79.27
2018-02-10T20:09:14.895Z,79.39
2018-02-10T20:11:42.401Z,79.60
2018-02-10T20:14:09.892Z,79.83
2018-02-10T20:16:37.509Z,79.37
2018-02-10T20:19:05.007Z,79.31
2018-02-10T20:21:32.512Z,79.03
2018-02-10T20:24:00.017Z,78.74
2018-02-10T20:26:27.533Z,78.55
2018-02-10T20:28:55.015Z,78.47
2018-02-10T20:31:22.515Z,78.24
2018-02-10T20:33:49.998Z,78.41
2018-02-10T20:36:17.508Z,79.17
2018-02-10T20:38:44.995Z,79.04
2018-02-10T20:41:12.534Z,79.04
2018-02-10T20:43:40.022Z,77.61
2018-02-10T20:46:07.535Z,77.48
2018-02-10T20:48:35.052Z,77.06
2018-02-10T20:51:02.581Z,77.28
2018-02-10T20:53:30.087Z,77.39
2018-02-10T20:55:57.557Z,77.25
2018-02-10T20:58:25.041Z,76.67
2018-02-10T21:00:52.581Z,76.57
2018-02-10T21:03:20.073Z,76.04
2018-02-10T21:05:47.592Z,75.85
2018-02-10T21:08:15.058Z,75.44
2018-02-10T21:10:42.758Z,75.62
2018-02-10T21:13:10.277Z,75.19
2018-02-10T21:15:37.787Z,73.80
2018-02-10T21:18:05.768Z,74.10
2018-02-10T21:20:33.296Z,73.62
2018-02-10T21:23:00.803Z,73.33
2018-02-10T21:25:28.353Z,72.80
2018-02-10T21:27:55.840Z,72.51
2018-02-10T21:30:23.449Z,72.55
2018-02-10T21:32:51.193Z,72.83
2018-02-10T21:35:18.688Z,72.23
2018-02-10T21:37:46.188Z,72.37
2018-02-10T21:40:13.662Z,71.96
2018-02-10T21:42:41.482Z,72.45
2018-02-10T21:45:09.000Z,72.19
2018-02-10T21:47:36.573Z,72.63
2018-02-10T21:50:04.120Z,72.63
2018-02-10T21:52:31.621Z,72.65
2018-02-10T21:54:59.133Z,72.72
2018-02-10T21:57:26.693Z,72.65
2018-02-10T21:59:54.212Z,72.19
2018-02-10T22:02:21.721Z,71.82
2018-02-10T22:04:49.235Z,72.61
2018-02-10T22:07:16.745Z,72.57
2018-02-10T22:09:44.288Z,71.87
2018-02-10T22:12:11.947Z,72.52
2018-02-10T22:14:39.482Z,72.69
2018-02-10T22:17:07.114Z,72.50
2018-02-10T22:19:34.725Z,72.39
2018-02-10T22:22:02.451Z,72.79
2018-02-10T22:24:29.972Z,71.98
2018-02-10T22:26:57.530Z,72.16
2018-02-10T22:29:25.274Z,72.33
2018-02-10T22:31:52.826Z,72.37
2018-02-10T22:34:20.407Z,72.35
2018-02-10T22:36:47.926Z,72.58
2018-02-10T22:39:16.653Z,71.50
2018-02-10T22:41:44.151Z,71.18
2018-02-10T22:44:11.772Z,71.53
2018-02-10T22:46:40.976Z,71.08
2018-02-10T22:49:08.580Z,71.70
2018-02-10T22:51:36.112Z,71.90
2018-02-10T22:54:03.619Z,71.73
2018-02-10T22:56:31.099Z,72.29
2018-02-10T22:58:58.615Z,70.93
2018-02-10T23:01:26.111Z,70.84
2018-02-10T23:03:53.636Z,70.46
2018-02-10T23:06:21.129Z,70.56
2018-02-10T23:08:48.640Z,71.04
2018-02-10T23:11:16.155Z,70.60
2018-02-10T23:13:43.635Z,70.38
2018-02-10T23:16:11.099Z,69.96
2018-02-10T23:18:38.609Z,70.11
2018-02-10T23:21:06.091Z,70.44
2018-02-10T23:23:33.553Z,70.57
2018-02-10T23:26:01.168Z,70.80
2018-02-10T23:28:28.660Z,70.53
2018-02-10T23:30:56.127Z,70.44
2018-02-10T23:33:23.679Z,69.27
2018-02-10T23:35:51.142Z,69.36
2018-02-10T23:38:18.610Z,69.33
2018-02-10T23:40:46.096Z,69.28
2018-02-10T23:43:13.583Z,69.93
2018-02-10T23:45:41.067Z,69.68
2018-02-10T23:48:08.548Z,69.99
2018-02-10T23:50:36.020Z,69.91
2018-02-10T23:53:03.524Z,70.18
2018-02-10T23:55:31.048Z,70.10
2018-02-10T23:57:58.626Z,70.36
